Time;durP1;ratioP1;P1;durP2;ratioP2;P2;SDS_P1;SDS_P2;PMS_P1;PMS_P2;Temp;Humidity;BMP_temperature;BMP_pressure;BME280_temperature;BME280_humidity;BME280_pressure;Samples;Min_cycle;Max_cycle;Signal;HPM_P1;HPM_P2
2023/09/04 00:01:10;;;;;;;5.68;2.97;;;18.20;99.90;;;;;;4165140;28;20188;-85
2023/09/04 00:03:11;;;;;;;4.60;3.08;;;18.10;99.90;;;;;;4148879;28;20227;-85
2023/09/04 00:05:12;;;;;;;4.47;2.90;;;18.10;99.90;;;;;;4149024;28;20176;-87
2023/09/04 00:07:12;;;;;;;7.18;2.90;;;18.10;99.90;;;;;;4148511;28;20693;-84
2023/09/04 00:09:15;;;;;;;6.53;3.65;;;18.10;99.90;;;;;;4165151;28;20179;-84
2023/09/04 00:11:15;;;;;;;5.93;2.80;;;18.10;99.90;;;;;;4148859;28;20284;-85
2023/09/04 00:13:16;;;;;;;11.20;2.80;;;18.10;99.90;;;;;;4148796;28;20192;-85
2023/09/04 00:15:17;;;;;;;5.32;3.03;;;18.10;99.90;;;;;;4148675;28;20204;-85
2023/09/04 00:17:18;;;;;;;5.60;2.55;;;18.20;99.90;;;;;;4148729;28;20263;-84
2023/09/04 00:19:19;;;;;;;5.53;2.60;;;18.30;99.90;;;;;;4132557;28;20193;-85
2023/09/04 00:21:20;;;;;;;6.15;3.50;;;18.40;99.90;;;;;;4148632;28;20606;-85
2023/09/04 00:23:20;;;;;;;3.80;2.45;;;18.50;99.90;;;;;;4132255;28;20189;-85
2023/09/04 00:25:21;;;;;;;5.03;2.83;;;18.60;99.90;;;;;;4148313;28;20184;-85
2023/09/04 00:27:23;;;;;;;6.28;3.10;;;18.70;99.90;;;;;;4148423;28;20255;-85
2023/09/04 00:29:23;;;;;;;6.65;3.13;;;18.80;99.90;;;;;;4165048;28;20716;-85
2023/09/04 00:31:24;;;;;;;5.70;3.20;;;18.80;99.90;;;;;;4132176;28;20265;-85
2023/09/04 00:33:25;;;;;;;4.28;2.80;;;18.80;99.90;;;;;;4148248;28;20204;-85
2023/09/04 00:35:26;;;;;;;5.75;3.05;;;18.60;99.90;;;;;;4148438;28;20172;-85
2023/09/04 00:37:26;;;;;;;12.35;3.28;;;18.40;99.90;;;;;;4148337;28;20176;-85
2023/09/04 00:39:27;;;;;;;5.57;3.00;;;18.10;99.90;;;;;;4148533;28;20212;-85
2023/09/04 00:41:28;;;;;;;5.90;3.15;;;18.00;99.90;;;;;;4148552;28;20279;-85
2023/09/04 00:43:36;;;;;;;5.30;2.95;;;17.90;99.90;;;;;;4148280;28;20181;-85
2023/09/04 00:45:36;;;;;;;4.07;2.80;;;17.80;99.90;;;;;;4148125;28;20210;-85
2023/09/04 00:47:44;;;;;;;4.45;2.72;;;17.80;99.90;;;;;;4148207;28;20169;-85
2023/09/04 00:49:47;;;;;;;5.20;3.00;;;17.70;99.90;;;;;;4148345;28;20682;-85
2023/09/04 00:51:48;;;;;;;6.13;3.22;;;17.80;99.90;;;;;;4148423;28;20169;-84
2023/09/04 00:53:49;;;;;;;8.25;3.75;;;17.80;99.90;;;;;;4148255;28;20172;-85
2023/09/04 00:55:50;;;;;;;4.63;2.80;;;17.80;99.90;;;;;;4148315;28;20231;-85
2023/09/04 00:57:52;;;;;;;6.53;3.88;;;17.80;99.90;;;;;;4164513;28;20172;-84
2023/09/04 00:59:53;;;;;;;4.72;3.25;;;17.90;99.90;;;;;;4148296;28;20266;-84
2023/09/04 01:01:56;;;;;;;7.65;3.50;;;17.90;99.90;;;;;;4164445;28;20204;-85
2023/09/04 01:03:57;;;;;;;5.28;3.35;;;17.90;99.90;;;;;;4148015;28;20223;-85
2023/09/04 01:05:58;;;;;;;7.03;3.10;;;17.80;99.90;;;;;;4132001;28;20170;-85
2023/09/04 01:08:03;;;;;;;6.25;3.60;;;17.70;99.90;;;;;;4148021;28;20177;-85
2023/09/04 01:10:04;;;;;;;5.45;3.35;;;17.50;99.90;;;;;;4164384;28;20176;-85
2023/09/04 01:12:15;;;;;;;8.23;3.78;;;17.50;99.90;;;;;;4131668;28;20182;-85
2023/09/04 01:14:19;;;;;;;8.15;4.35;;;17.50;99.90;;;;;;4148060;28;20267;-91
2023/09/04 01:16:21;;;;;;;6.63;3.90;;;17.50;99.90;;;;;;4149204;28;20215;-85
2023/09/04 01:18:23;;;;;;;6.82;3.75;;;17.60;99.90;;;;;;4147884;28;20180;-85
2023/09/04 01:20:28;;;;;;;5.95;3.55;;;17.50;99.90;;;;;;4147886;28;20354;-85
2023/09/04 01:22:29;;;;;;;10.07;3.58;;;17.60;99.90;;;;;;4147613;28;20196;-85
2023/09/04 01:24:30;;;;;;;5.93;3.85;;;17.80;99.90;;;;;;4163958;28;20308;-85
2023/09/04 01:26:54;;;;;;;12.18;3.40;;;17.80;99.90;;;;;;4132142;28;20181;-85
2023/09/04 01:29:23;;;;;;;6.13;3.67;;;17.90;99.90;;;;;;4147743;28;20729;-85
2023/09/04 01:31:29;;;;;;;6.75;3.53;;;18.00;99.90;;;;;;4148139;28;20188;-84
2023/09/04 01:33:34;;;;;;;5.38;3.35;;;17.90;99.90;;;;;;4147674;28;20644;-84
2023/09/04 01:35:36;;;;;;;7.40;3.85;;;17.90;99.90;;;;;;4164107;28;20168;-84
2023/09/04 01:37:38;;;;;;;6.35;3.50;;;17.80;99.90;;;;;;4147763;28;20693;-85
2023/09/04 01:39:40;;;;;;;7.18;3.40;;;17.80;99.90;;;;;;4147595;28;20251;-84
2023/09/04 01:41:42;;;;;;;7.97;3.92;;;17.80;99.90;;;;;;4147840;28;20177;-84
2023/09/04 01:43:43;;;;;;;5.75;3.15;;;17.70;99.90;;;;;;4147451;28;20295;-84
2023/09/04 01:45:43;;;;;;;8.02;4.20;;;17.60;99.90;;;;;;4163967;28;20184;-85
2023/09/04 01:47:46;;;;;;;6.47;3.58;;;17.70;99.90;;;;;;4147925;28;20631;-85
2023/09/04 01:49:49;;;;;;;5.43;3.53;;;17.70;99.90;;;;;;4164160;28;20646;-85
2023/09/04 01:51:51;;;;;;;7.57;4.05;;;17.70;99.90;;;;;;4147698;28;20259;-84
2023/09/04 01:53:52;;;;;;;7.50;4.00;;;17.80;99.90;;;;;;4147519;28;20184;-86
2023/09/04 01:55:52;;;;;;;8.88;3.83;;;17.80;99.90;;;;;;4147485;28;20524;-85
2023/09/04 01:57:53;;;;;;;6.45;3.88;;;17.80;99.90;;;;;;4148696;28;20662;-85
2023/09/04 01:59:54;;;;;;;6.93;4.20;;;17.70;99.90;;;;;;4150784;28;20678;-85
2023/09/04 02:01:55;;;;;;;5.82;3.85;;;17.60;99.90;;;;;;4150692;28;20694;-85
2023/09/04 02:03:57;;;;;;;9.20;3.83;;;17.60;99.90;;;;;;4150666;28;20184;-85
2023/09/04 02:05:57;;;;;;;10.90;4.25;;;17.50;99.90;;;;;;4134588;28;20177;-85
2023/09/04 02:07:58;;;;;;;7.57;4.05;;;17.50;99.90;;;;;;4134467;28;20185;-84
2023/09/04 02:09:59;;;;;;;6.65;4.13;;;17.50;99.90;;;;;;4150445;28;20169;-85
2023/09/04 02:12:00;;;;;;;8.13;4.20;;;17.50;99.90;;;;;;4167142;28;20267;-85
2023/09/04 02:14:01;;;;;;;6.55;3.92;;;17.50;99.90;;;;;;4150671;28;20169;-85
2023/09/04 02:16:02;;;;;;;8.05;4.10;;;17.50;99.90;;;;;;4150698;28;20737;-84
2023/09/04 02:18:03;;;;;;;7.25;4.32;;;17.50;99.90;;;;;;4166946;28;20168;-84
2023/09/04 02:20:05;;;;;;;7.30;4.30;;;17.50;99.90;;;;;;4134145;28;20272;-85
2023/09/04 02:22:05;;;;;;;7.95;4.32;;;17.40;99.90;;;;;;4150363;28;20196;-84
2023/09/04 02:24:06;;;;;;;7.68;4.35;;;17.30;99.90;;;;;;4166801;28;20245;-85
2023/09/04 02:26:07;;;;;;;7.43;4.15;;;17.20;99.90;;;;;;4150394;28;20180;-85
2023/09/04 02:28:08;;;;;;;6.25;4.43;;;17.00;99.90;;;;;;4166366;28;20188;-85
2023/09/04 02:30:09;;;;;;;10.02;4.95;;;17.00;99.90;;;;;;4134287;28;20221;-91
2023/09/04 02:32:10;;;;;;;6.47;3.78;;;17.00;99.90;;;;;;4150426;28;20196;-85
2023/09/04 02:34:12;;;;;;;7.43;4.15;;;17.00;99.90;;;;;;4150659;28;20284;-85
2023/09/04 02:36:13;;;;;;;8.23;4.40;;;17.00;99.90;;;;;;4150431;28;20212;-85
2023/09/04 02:38:14;;;;;;;6.38;4.28;;;16.90;99.90;;;;;;4166669;28;20179;-86
2023/09/04 02:40:15;;;;;;;7.15;4.10;;;16.90;99.90;;;;;;4133897;28;20211;-84
2023/09/04 02:42:15;;;;;;;8.18;4.47;;;17.00;99.90;;;;;;4133804;28;20202;-85
2023/09/04 02:44:16;;;;;;;8.90;4.35;;;17.00;99.90;;;;;;4150404;28;20173;-85
2023/09/04 02:46:17;;;;;;;6.30;4.10;;;17.10;99.90;;;;;;4134117;28;20181;-85
2023/09/04 02:48:18;;;;;;;8.55;4.55;;;17.10;99.90;;;;;;4150087;28;20211;-85
2023/09/04 02:50:18;;;;;;;6.78;4.47;;;17.20;99.90;;;;;;4133930;28;20174;-90
2023/09/04 02:52:19;;;;;;;5.50;4.05;;;17.20;99.90;;;;;;4149814;28;20276;-85
2023/09/04 02:54:20;;;;;;;8.13;4.18;;;17.30;99.90;;;;;;4166413;28;20174;-85
2023/09/04 02:56:21;;;;;;;8.07;4.70;;;17.30;99.90;;;;;;4133780;28;20208;-85
2023/09/04 02:58:22;;;;;;;7.43;4.15;;;17.30;99.90;;;;;;4133506;28;20180;-85
2023/09/04 03:00:23;;;;;;;8.75;4.03;;;17.20;99.90;;;;;;4133591;28;20699;-90
2023/09/04 03:02:24;;;;;;;11.52;4.47;;;17.10;99.90;;;;;;4133692;28;20339;-85
2023/09/04 03:04:25;;;;;;;7.15;3.90;;;17.10;99.90;;;;;;4133523;28;20178;-85
2023/09/04 03:06:26;;;;;;;8.15;4.30;;;17.10;99.90;;;;;;4149732;28;20173;-85
2023/09/04 03:08:27;;;;;;;11.27;5.13;;;17.10;99.90;;;;;;4149303;28;20168;-84
2023/09/04 03:10:30;;;;;;;13.32;5.07;;;17.10;99.90;;;;;;4149663;28;20172;-85
2023/09/04 03:12:32;;;;;;;10.18;5.13;;;17.20;99.90;;;;;;4149614;28;20201;-84
2023/09/04 03:14:33;;;;;;;8.82;4.75;;;17.20;99.90;;;;;;4133503;28;20218;-85
2023/09/04 03:16:34;;;;;;;8.50;4.28;;;17.30;99.90;;;;;;4149538;28;20180;-85
2023/09/04 03:18:35;;;;;;;8.88;4.80;;;17.30;99.90;;;;;;4133361;28;20251;-85
2023/09/04 03:20:36;;;;;;;6.00;3.97;;;17.20;99.90;;;;;;4149376;28;20560;-85
2023/09/04 03:22:37;;;;;;;9.60;4.72;;;17.20;99.90;;;;;;4165553;28;20235;-85
2023/09/04 03:24:38;;;;;;;7.82;4.35;;;17.40;99.90;;;;;;4149433;28;20175;-85
2023/09/04 03:26:39;;;;;;;10.90;5.05;;;17.50;99.90;;;;;;4133263;28;20257;-84
2023/09/04 03:28:41;;;;;;;8.38;4.57;;;17.70;99.90;;;;;;4133304;28;20212;-84
2023/09/04 03:30:42;;;;;;;10.65;4.28;;;17.70;99.90;;;;;;4149387;28;20181;-84
2023/09/04 03:32:43;;;;;;;8.23;4.32;;;17.60;99.90;;;;;;4165744;28;20192;-85
2023/09/04 03:34:43;;;;;;;8.05;4.40;;;17.40;99.90;;;;;;4133206;28;20173;-84
2023/09/04 03:36:46;;;;;;;7.65;4.43;;;17.30;99.90;;;;;;4149507;28;20651;-85
2023/09/04 03:38:47;;;;;;;11.52;4.72;;;17.30;99.90;;;;;;4149300;28;20172;-85
2023/09/04 03:40:49;;;;;;;11.27;4.13;;;17.60;99.90;;;;;;4149397;28;20322;-85
2023/09/04 03:42:50;;;;;;;8.65;4.82;;;17.70;99.90;;;;;;4148962;28;20209;-85
2023/09/04 03:44:52;;;;;;;9.88;3.47;;;17.70;99.90;;;;;;4165378;28;20531;-85
2023/09/04 03:46:52;;;;;;;7.15;4.43;;;17.50;99.90;;;;;;4149317;28;20179;-85
2023/09/04 03:48:53;;;;;;;8.90;4.63;;;17.50;99.90;;;;;;4149332;28;20276;-85
2023/09/04 03:50:58;;;;;;;8.20;4.35;;;17.40;99.90;;;;;;4165687;28;20230;-85
2023/09/04 03:52:59;;;;;;;6.20;3.95;;;17.20;99.90;;;;;;4149028;28;20204;-85
2023/09/04 03:55:00;;;;;;;8.18;4.15;;;17.00;99.90;;;;;;4165625;28;20215;-85
2023/09/04 03:57:00;;;;;;;7.70;4.95;;;16.90;99.90;;;;;;4149116;28;20165;-86
2023/09/04 03:59:01;;;;;;;10.68;4.63;;;17.10;99.90;;;;;;4150008;28;20176;-84
2023/09/04 04:01:03;;;;;;;7.47;4.95;;;17.30;99.90;;;;;;4148960;28;20200;-85
2023/09/04 04:03:04;;;;;;;8.90;5.15;;;17.50;99.90;;;;;;4149091;28;20228;-85
2023/09/04 04:05:06;;;;;;;11.07;5.35;;;17.60;99.90;;;;;;4148935;28;20185;-85
2023/09/04 04:07:08;;;;;;;7.28;4.10;;;17.60;99.90;;;;;;4148571;28;20177;-85
2023/09/04 04:09:11;;;;;;;8.75;4.97;;;17.60;99.90;;;;;;4148760;28;20184;-85
2023/09/04 04:11:12;;;;;;;7.25;4.32;;;17.60;99.90;;;;;;4132609;28;20174;-85
2023/09/04 04:13:12;;;;;;;9.43;4.75;;;17.60;99.90;;;;;;4132433;28;20193;-84
2023/09/04 04:15:13;;;;;;;11.48;5.18;;;17.50;99.90;;;;;;4148862;28;20181;-85
2023/09/04 04:17:14;;;;;;;11.20;4.60;;;17.40;99.90;;;;;;4148850;28;20172;-85
2023/09/04 04:19:15;;;;;;;8.80;4.72;;;17.20;99.90;;;;;;4148648;28;20216;-85
2023/09/04 04:21:16;;;;;;;11.23;5.07;;;17.30;99.90;;;;;;4147957;28;20204;-84
2023/09/04 04:23:17;;;;;;;9.13;4.90;;;17.40;99.90;;;;;;4148717;28;20259;-85
2023/09/04 04:25:18;;;;;;;8.18;5.20;;;17.40;99.90;;;;;;4132475;28;20188;-85
2023/09/04 04:27:18;;;;;;;11.85;6.15;;;17.40;99.90;;;;;;4149725;28;20181;-85
2023/09/04 04:29:19;;;;;;;8.07;4.72;;;17.30;99.90;;;;;;4148642;28;20686;-85
2023/09/04 04:31:21;;;;;;;10.63;4.43;;;17.30;99.90;;;;;;4148803;28;20161;-84
2023/09/04 04:33:22;;;;;;;7.75;4.18;;;17.20;99.90;;;;;;4148599;28;20720;-84
2023/09/04 04:35:23;;;;;;;9.18;4.68;;;17.10;99.90;;;;;;4132372;28;20248;-85
2023/09/04 04:37:24;;;;;;;8.82;4.75;;;17.10;99.90;;;;;;4148157;28;20181;-85
2023/09/04 04:39:25;;;;;;;17.63;5.80;;;17.10;99.90;;;;;;4164861;28;20172;-85
2023/09/04 04:41:26;;;;;;;8.63;5.15;;;17.20;99.90;;;;;;4132282;28;20181;-84
2023/09/04 04:43:27;;;;;;;10.02;5.03;;;17.10;99.90;;;;;;4147852;28;20227;-85
2023/09/04 04:45:28;;;;;;;10.38;5.25;;;17.20;99.90;;;;;;4132269;28;20232;-85
2023/09/04 04:47:29;;;;;;;10.15;5.65;;;17.20;99.90;;;;;;4148100;28;20686;-85
2023/09/04 04:49:30;;;;;;;8.82;4.95;;;17.20;99.90;;;;;;4131771;28;20643;-85
2023/09/04 04:51:31;;;;;;;10.52;5.13;;;17.10;99.90;;;;;;4148162;28;20176;-85
2023/09/04 04:53:33;;;;;;;8.15;4.38;;;17.00;99.90;;;;;;4164311;28;20712;-85
2023/09/04 04:55:34;;;;;;;12.48;6.30;;;17.00;99.90;;;;;;4148166;28;20173;-85
2023/09/04 04:57:35;;;;;;;8.90;4.85;;;17.10;99.90;;;;;;4148109;28;20682;-84
2023/09/04 04:59:36;;;;;;;12.32;5.45;;;17.10;99.90;;;;;;4148161;28;20238;-85
2023/09/04 05:01:38;;;;;;;8.38;4.68;;;17.10;99.90;;;;;;4164455;28;20172;-85
2023/09/04 05:03:39;;;;;;;10.18;5.57;;;17.10;99.90;;;;;;4147995;28;20177;-85
2023/09/04 05:05:47;;;;;;;10.57;5.03;;;17.00;99.90;;;;;;4131844;28;20242;-88
2023/09/04 05:07:48;;;;;;;9.05;5.30;;;16.80;99.90;;;;;;4148180;28;20260;-86
2023/09/04 05:09:53;;;;;;;10.20;5.13;;;16.70;99.90;;;;;;4148415;28;20622;-92
2023/09/04 05:11:54;;;;;;;9.10;4.78;;;16.50;99.90;;;;;;4164413;28;20184;-85
2023/09/04 05:13:57;;;;;;;10.43;5.35;;;16.40;99.90;;;;;;4147799;28;20181;-85
2023/09/04 05:16:04;;;;;;;8.40;5.10;;;16.30;99.90;;;;;;4148043;28;20161;-85
2023/09/04 05:18:08;;;;;;;8.00;4.70;;;16.10;99.90;;;;;;4147971;28;20180;-85
2023/09/04 05:20:09;;;;;;;14.05;5.90;;;16.00;99.90;;;;;;4131745;28;20699;-85
2023/09/04 05:22:10;;;;;;;10.30;5.03;;;16.00;99.90;;;;;;4147940;28;20193;-91
2023/09/04 05:24:11;;;;;;;12.25;6.30;;;15.80;99.90;;;;;;4147812;28;20171;-91
2023/09/04 05:26:12;;;;;;;12.05;6.45;;;15.70;99.90;;;;;;4148156;28;20746;-85
2023/09/04 05:28:13;;;;;;;10.57;5.40;;;15.60;99.90;;;;;;4148018;28;20279;-85
2023/09/04 05:30:15;;;;;;;12.98;6.05;;;15.50;99.90;;;;;;4148199;28;20207;-90
2023/09/04 05:32:16;;;;;;;11.80;5.80;;;15.50;99.90;;;;;;4131427;28;20202;-92
2023/09/04 05:34:17;;;;;;;13.63;6.68;;;15.60;99.90;;;;;;4148761;28;20619;-85
2023/09/04 05:36:17;;;;;;;10.90;5.50;;;15.60;99.90;;;;;;4147832;28;20183;-85
2023/09/04 05:38:18;;;;;;;13.75;6.32;;;15.70;99.90;;;;;;4148208;28;20285;-91
2023/09/04 05:40:19;;;;;;;11.95;5.65;;;15.80;99.90;;;;;;4147858;28;20209;-92
2023/09/04 05:42:21;;;;;;;14.30;6.32;;;15.80;99.90;;;;;;4147886;28;20193;-93
2023/09/04 05:44:21;;;;;;;9.55;5.25;;;15.80;99.90;;;;;;4164471;28;20535;-92
2023/09/04 05:46:22;;;;;;;12.80;5.43;;;15.90;99.90;;;;;;4147924;28;20181;-86
2023/09/04 05:48:23;;;;;;;10.70;4.95;;;15.80;99.90;;;;;;4131511;28;20197;-88
2023/09/04 05:50:23;;;;;;;14.68;5.95;;;16.00;99.90;;;;;;4131922;28;20253;-91
2023/09/04 05:52:24;;;;;;;10.75;5.63;;;16.20;99.90;;;;;;4147769;28;20196;-86
2023/09/04 05:54:25;;;;;;;15.63;5.88;;;16.30;99.90;;;;;;4131419;28;20201;-86
2023/09/04 05:56:27;;;;;;;11.30;5.72;;;16.30;99.90;;;;;;4147774;28;20173;-85
2023/09/04 05:58:27;;;;;;;9.52;5.53;;;16.40;99.90;;;;;;4131436;28;20169;-89
2023/09/04 06:00:28;;;;;;;10.10;5.75;;;16.50;99.90;;;;;;4163731;28;20577;-85
2023/09/04 06:02:29;;;;;;;12.48;5.72;;;16.40;99.90;;;;;;4147563;28;20252;-85
2023/09/04 06:04:30;;;;;;;10.27;5.00;;;16.30;99.90;;;;;;4131363;28;20604;-86
2023/09/04 06:06:31;;;;;;;10.48;5.82;;;16.50;99.90;;;;;;4131476;28;20170;-88
2023/09/04 06:08:33;;;;;;;10.88;5.63;;;16.40;99.90;;;;;;4147705;28;20172;-85
2023/09/04 06:10:34;;;;;;;9.57;5.40;;;16.40;99.90;;;;;;4147797;28;20176;-85
2023/09/04 06:12:35;;;;;;;10.05;5.65;;;16.40;99.90;;;;;;4163920;28;20246;-85
2023/09/04 06:14:35;;;;;;;9.35;4.55;;;16.20;99.90;;;;;;4131555;28;20321;-86
2023/09/04 06:16:36;;;;;;;9.95;5.13;;;16.40;99.90;;;;;;4163988;28;20176;-85
2023/09/04 06:18:37;;;;;;;11.05;5.72;;;16.50;99.90;;;;;;4131312;28;20174;-93
2023/09/04 06:20:37;;;;;;;8.23;4.80;;;16.70;99.90;;;;;;4147639;28;20209;-91
2023/09/04 06:22:39;;;;;;;11.73;5.78;;;16.80;99.90;;;;;;4163913;28;20196;-85
2023/09/04 06:24:40;;;;;;;14.30;6.47;;;16.80;99.90;;;;;;4147818;28;20639;-86
2023/09/04 06:26:41;;;;;;;12.48;5.82;;;16.90;99.90;;;;;;4147365;28;20180;-85
2023/09/04 06:28:42;;;;;;;14.55;6.13;;;16.90;99.90;;;;;;4131107;28;20695;-85
2023/09/04 06:30:44;;;;;;;23.23;6.10;;;16.90;99.90;;;;;;4147283;28;20623;-85
2023/09/04 06:32:45;;;;;;;12.75;5.88;;;16.90;99.90;;;;;;4147456;28;20197;-85
2023/09/04 06:34:46;;;;;;;12.68;6.32;;;16.90;99.90;;;;;;4147473;28;20165;-85
2023/09/04 06:36:47;;;;;;;11.20;5.07;;;16.80;99.90;;;;;;4147500;28;20180;-86
2023/09/04 06:38:48;;;;;;;13.73;5.85;;;16.80;99.90;;;;;;4147518;28;20164;-85
2023/09/04 06:40:50;;;;;;;13.52;6.50;;;16.90;99.90;;;;;;4131314;28;20275;-93
2023/09/04 06:42:54;;;;;;;11.43;5.63;;;16.90;99.90;;;;;;4148487;28;20212;-85
2023/09/04 06:44:54;;;;;;;12.18;5.88;;;17.00;99.90;;;;;;4150183;28;20177;-85
2023/09/04 06:46:55;;;;;;;11.45;5.88;;;17.00;99.90;;;;;;4150414;28;20318;-85
2023/09/04 06:48:56;;;;;;;11.80;5.18;;;17.00;99.90;;;;;;4166569;28;20258;-85
2023/09/04 06:50:56;;;;;;;10.35;5.53;;;17.10;99.90;;;;;;4134038;28;20184;-92
2023/09/04 06:52:57;;;;;;;12.07;5.55;;;17.20;99.90;;;;;;4149936;28;20637;-85
2023/09/04 06:54:58;;;;;;;14.60;5.85;;;17.10;99.90;;;;;;4150070;28;20165;-85
2023/09/04 06:56:59;;;;;;;9.65;5.28;;;17.30;99.90;;;;;;4150085;28;20177;-85
2023/09/04 06:59:00;;;;;;;10.02;5.13;;;17.40;99.90;;;;;;4133938;28;20237;-86
2023/09/04 07:01:04;;;;;;;13.00;7.15;;;17.60;99.90;;;;;;4150044;28;20204;-85
2023/09/04 07:03:05;;;;;;;12.95;6.50;;;17.80;99.90;;;;;;4166368;28;20613;-85
2023/09/04 07:05:08;;;;;;;12.23;5.85;;;18.00;99.90;;;;;;4150098;28;20224;-85
2023/09/04 07:07:10;;;;;;;13.88;6.03;;;18.10;99.90;;;;;;4150040;28;20172;-85
2023/09/04 07:09:10;;;;;;;11.88;6.47;;;18.20;99.90;;;;;;4133871;28;20272;-93
2023/09/04 07:11:11;;;;;;;12.25;6.15;;;18.60;99.90;;;;;;4150612;28;20177;-86
2023/09/04 07:13:12;;;;;;;16.58;7.00;;;19.30;99.90;;;;;;4133921;28;20201;-86
2023/09/04 07:15:13;;;;;;;10.25;5.82;;;20.30;99.90;;;;;;4150051;28;20670;-92
2023/09/04 07:17:13;;;;;;;10.57;5.20;;;21.20;99.90;;;;;;4150025;28;20185;-86
2023/09/04 07:19:15;;;;;;;9.85;5.95;;;22.10;99.90;;;;;;4149579;28;20753;-86
2023/09/04 07:21:16;;;;;;;11.27;5.65;;;22.50;99.90;;;;;;4133618;28;20284;-86
2023/09/04 07:23:16;;;;;;;7.35;4.28;;;23.40;99.90;;;;;;4149686;28;20196;-87
2023/09/04 07:25:17;;;;;;;8.45;3.88;;;24.10;99.90;;;;;;4133632;28;20174;-87
2023/09/04 07:35:08;;;;;;;7.40;4.60;;;25.40;99.90;;;;;;4486163;22;20240;-94
2023/09/04 07:37:43;;;;;;;8.20;4.68;;;26.00;99.90;;;;;;4113374;28;20171;-93
2023/09/04 07:40:08;;;;;;;7.45;4.47;;;27.30;99.90;;;;;;4096882;29;20211;-94
2023/09/04 07:42:51;;;;;;;6.75;4.07;;;27.50;99.90;;;;;;4145291;28;20189;-94
2023/09/04 07:45:46;;;;;;;6.72;4.43;;;28.10;99.90;;;;;;4104742;28;20519;-94
2023/09/04 07:48:04;;;;;;;9.38;4.68;;;28.60;99.90;;;;;;4091760;29;20195;-94
2023/09/04 07:53:03;;;;;;;7.40;4.90;;;28.80;99.90;;;;;;4124080;28;20202;-94
2023/09/04 07:55:51;;;;;;;7.85;4.13;;;28.70;99.90;;;;;;4106685;28;20202;-95
2023/09/04 08:15:47;;;;;;;6.72;3.80;;;29.80;99.90;;;;;;3894440;30;20207;-95
2023/09/04 08:18:53;;;;;;;5.35;3.58;;;30.50;99.90;;;;;;3958493;29;20190;-95
2023/09/04 08:21:56;;;;;;;;;;;;;;;;;;;;;
2023/09/04 08:27:01;;;;;;;5.90;3.20;;;28.30;99.90;;;;;;4032877;29;20275;-94
2023/09/04 08:43:15;;;;;;;;;;;;;;;;;;;;;
2023/09/04 08:46:08;;;;;;;3.58;2.13;;;29.80;99.90;;;;;;4176498;28;20193;-95
2023/09/04 08:48:41;;;;;;;;;;;;;;;;;;;;;
2023/09/04 08:51:27;;;;;;;;;;;;;;;;;;;;;
2023/09/04 09:02:45;;;;;;;3.05;1.80;;;27.20;99.90;;;;;;4167823;28;20214;-94
2023/09/04 09:05:16;;;;;;;2.58;1.88;;;28.20;99.90;;;;;;4137792;28;20184;-95
2023/09/04 09:08:33;;;;;;;3.88;1.80;;;29.50;99.90;;;;;;4157394;28;20674;-94
2023/09/04 09:11:10;;;;;;;4.00;2.00;;;29.50;99.90;;;;;;4151975;28;20811;-94
2023/09/04 09:13:44;;;;;;;2.03;1.80;;;29.80;99.90;;;;;;4156763;28;20261;-94
2023/09/04 09:16:00;;;;;;;4.38;1.48;;;29.50;99.90;;;;;;4159179;28;20184;-94
2023/09/04 09:20:53;;;;;;;2.90;1.85;;;29.90;99.90;;;;;;4136461;28;20260;-95
2023/09/04 09:26:32;;;;;;;2.88;1.52;;;30.50;99.90;;;;;;4109388;28;20186;-94
2023/09/04 09:29:15;;;;;;;3.88;1.90;;;30.80;99.90;;;;;;4110575;29;20712;-94
2023/09/04 09:31:24;;;;;;;2.47;1.60;;;30.80;99.90;;;;;;4161016;28;20184;-94
2023/09/04 09:34:09;;;;;;;2.15;1.58;;;30.80;99.90;;;;;;4159563;28;20657;-94
2023/09/04 09:36:24;;;;;;;2.70;1.70;;;30.50;99.90;;;;;;4143240;28;20189;-94
2023/09/04 09:39:05;;;;;;;;;;;;;;;;;;;;;
2023/09/04 09:41:23;;;;;;;2.50;1.60;;;30.80;99.90;;;;;;4169121;28;20160;-93
2023/09/04 09:43:25;;;;;;;3.80;1.60;;;30.50;99.90;;;;;;4152865;28;20199;-93
2023/09/04 09:45:35;;;;;;;2.10;1.40;;;31.50;99.90;;;;;;4145956;28;20176;-95
2023/09/04 09:47:41;;;;;;;1.60;1.20;;;30.70;99.90;;;;;;4142054;28;20181;-94
2023/09/04 09:50:13;;;;;;;2.97;1.88;;;29.80;99.90;;;;;;4160800;28;20278;-94
2023/09/04 09:52:40;;;;;;;1.58;1.30;;;30.60;99.90;;;;;;4160331;28;20212;-93
2023/09/04 09:54:46;;;;;;;4.07;1.80;;;30.10;99.90;;;;;;4140707;28;20652;-94
2023/09/04 09:56:56;;;;;;;2.90;1.63;;;30.80;99.90;;;;;;4141368;28;20180;-93
2023/09/04 09:59:08;;;;;;;2.88;1.45;;;30.90;99.90;;;;;;4144040;28;20269;-94
2023/09/04 10:01:17;;;;;;;1.77;1.25;;;30.70;99.90;;;;;;4156336;28;20192;-93
2023/09/04 10:03:18;;;;;;;2.95;1.38;;;31.30;99.90;;;;;;4155620;28;20203;-94
2023/09/04 10:05:25;;;;;;;1.88;1.48;;;31.50;99.90;;;;;;4158653;28;20188;-94
2023/09/04 10:07:29;;;;;;;2.38;1.50;;;31.50;99.90;;;;;;4140852;28;20173;-94
2023/09/04 10:09:45;;;;;;;1.40;1.20;;;30.70;99.90;;;;;;4142378;28;20192;-93
2023/09/04 10:11:54;;;;;;;2.72;1.85;;;29.70;99.90;;;;;;4141841;28;20181;-93
2023/09/04 10:14:20;;;;;;;4.13;2.22;;;28.90;99.90;;;;;;4157042;28;20188;-93
2023/09/04 10:17:03;;;;;;;2.55;1.38;;;28.70;99.90;;;;;;4142864;28;20178;-92
2023/09/04 10:19:07;;;;;;;1.75;1.10;;;28.40;99.90;;;;;;4145914;28;20188;-93
2023/09/04 10:21:22;;;;;;;1.40;1.15;;;27.50;99.90;;;;;;4164186;28;20247;-93
2023/09/04 10:23:50;;;;;;;2.17;1.17;;;26.90;99.90;;;;;;4165442;28;20188;-93
2023/09/04 10:26:09;;;;;;;2.20;1.58;;;27.10;99.90;;;;;;4146855;28;20601;-93
2023/09/04 10:28:18;;;;;;;1.92;1.40;;;27.00;99.90;;;;;;4143607;28;20193;-92
2023/09/04 10:30:26;;;;;;;2.65;1.55;;;26.90;99.90;;;;;;4158077;28;20211;-93
2023/09/04 10:32:31;;;;;;;5.45;1.92;;;26.90;99.90;;;;;;4158808;28;20200;-93
2023/09/04 10:35:05;;;;;;;2.88;1.75;;;26.80;99.90;;;;;;4155755;28;20598;-93
2023/09/04 10:37:10;;;;;;;2.42;1.30;;;26.50;99.90;;;;;;4140897;28;20189;-92
2023/09/04 10:39:15;;;;;;;1.95;1.40;;;26.30;99.90;;;;;;4147145;28;20173;-92
2023/09/04 10:41:19;;;;;;;2.88;1.50;;;25.90;99.90;;;;;;4160028;28;20189;-92
2023/09/04 10:43:20;;;;;;;2.45;1.38;;;25.70;99.90;;;;;;4143757;28;20196;-93
2023/09/04 10:45:22;;;;;;;2.20;1.48;;;25.90;99.90;;;;;;4140279;28;20181;-92
2023/09/04 10:47:23;;;;;;;2.40;1.40;;;26.20;99.90;;;;;;4139798;28;20186;-93
2023/09/04 10:49:31;;;;;;;2.78;1.50;;;25.90;99.90;;;;;;4140640;28;20548;-93
2023/09/04 10:54:27;;;;;;;3.05;1.20;;;26.10;99.90;;;;;;4161187;28;20193;-92
2023/09/04 10:59:14;;;;;;;2.95;1.30;;;25.80;99.90;;;;;;4174450;28;20260;-92
2023/09/04 11:01:38;;;;;;;4.03;1.63;;;26.20;99.90;;;;;;4142131;28;20165;-92
2023/09/04 11:03:39;;;;;;;1.90;1.23;;;26.20;99.90;;;;;;4141697;28;20211;-93
2023/09/04 11:06:05;;;;;;;2.72;1.27;;;26.00;99.90;;;;;;4161330;28;20168;-93
2023/09/04 11:08:26;;;;;;;1.63;0.98;;;26.00;99.90;;;;;;4161565;28;20252;-93
2023/09/04 11:10:38;;;;;;;2.65;1.17;;;26.20;99.90;;;;;;4161294;28;20303;-93
2023/09/04 11:12:43;;;;;;;3.28;1.48;;;26.30;99.90;;;;;;4160427;28;20562;-93
2023/09/04 11:14:51;;;;;;;2.20;1.40;;;26.10;99.90;;;;;;4162989;28;20221;-93
2023/09/04 11:16:54;;;;;;;3.65;1.30;;;26.20;99.90;;;;;;4146824;28;20189;-93
2023/09/04 11:19:07;;;;;;;3.63;1.00;;;26.30;99.90;;;;;;4157375;28;20177;-92
2023/09/04 11:21:30;;;;;;;2.08;1.25;;;26.30;99.90;;;;;;4145592;28;20191;-92
2023/09/04 11:23:33;;;;;;;1.73;1.20;;;26.30;99.90;;;;;;4140079;28;20206;-91
2023/09/04 11:25:35;;;;;;;2.40;1.38;;;26.40;99.90;;;;;;4160023;28;20161;-92
2023/09/04 11:27:36;;;;;;;1.90;1.25;;;26.20;99.90;;;;;;4161736;28;20188;-91
2023/09/04 11:29:37;;;;;;;1.75;1.15;;;26.30;99.90;;;;;;4161018;28;20244;-93
2023/09/04 11:31:43;;;;;;;2.00;1.20;;;26.30;99.90;;;;;;4159959;28;20192;-93
2023/09/04 11:33:48;;;;;;;1.55;1.02;;;26.50;99.90;;;;;;4139885;28;20165;-92
2023/09/04 11:36:08;;;;;;;1.58;1.20;;;26.80;99.90;;;;;;4155505;28;20177;-93
2023/09/04 11:38:27;;;;;;;2.40;1.52;;;26.90;99.90;;;;;;4157810;28;20295;-92
2023/09/04 11:40:41;;;;;;;2.20;1.40;;;26.80;99.90;;;;;;4141996;28;20181;-92
2023/09/04 11:42:46;;;;;;;3.85;1.50;;;26.60;99.90;;;;;;4140113;28;20333;-93
2023/09/04 11:44:52;;;;;;;1.92;1.20;;;26.50;99.90;;;;;;4138916;28;20180;-93
2023/09/04 11:46:56;;;;;;;2.70;1.73;;;26.40;99.90;;;;;;4140073;28;20726;-92
2023/09/04 11:48:57;;;;;;;2.00;1.40;;;26.30;99.90;;;;;;4141027;28;20185;-93
2023/09/04 11:51:09;;;;;;;2.78;1.60;;;26.30;99.90;;;;;;4139129;28;20217;-93
2023/09/04 11:53:10;;;;;;;3.92;1.45;;;26.40;99.90;;;;;;4154017;28;20204;-92
2023/09/04 11:55:11;;;;;;;2.55;1.40;;;26.60;99.90;;;;;;4139075;28;20236;-94
2023/09/04 11:57:35;;;;;;;2.20;1.40;;;26.60;99.90;;;;;;4137621;28;20185;-94
2023/09/04 11:59:48;;;;;;;8.35;1.25;;;26.50;99.90;;;;;;4140509;28;20314;-94
2023/09/04 12:02:53;;;;;;;4.07;1.13;;;26.50;99.90;;;;;;4153408;28;20181;-94
2023/09/04 12:04:36;;;;;;;2.53;1.20;;;26.60;99.90;;;;;;4146314;28;20185;-92
2023/09/04 12:06:50;;;;;;;2.38;1.33;;;26.70;99.90;;;;;;4138951;28;20190;-94